sensor_id;sensor_type;location;lat;lon;timestamp;temperature;humidity
22698;DHT22;11516;51.612;7.510;2023-03-01T00:00:41;0.50;99.90
22698;DHT22;11516;51.612;7.510;2023-03-01T00:03:11;0.40;99.90
22698;DHT22;11516;51.612;7.510;2023-03-01T00:05:46;0.40;99.90
22698;DHT22;11516;51.612;7.510;2023-03-01T00:08:12;0.40;99.90
22698;DHT22;11516;51.612;7.510;2023-03-01T00:10:38;0.30;99.90
22698;DHT22;11516;51.612;7.510;2023-03-01T00:13:04;0.30;99.90
22698;DHT22;11516;51.612;7.510;2023-03-01T00:15:31;0.20;99.90
22698;DHT22;11516;51.612;7.510;2023-03-01T00:17:56;0.20;99.90
22698;DHT22;11516;51.612;7.510;2023-03-01T00:20:22;0.20;99.90
22698;DHT22;11516;51.612;7.510;2023-03-01T00:22:48;0.20;99.90
22698;DHT22;11516;51.612;7.510;2023-03-01T00:25:13;0.10;99.90
22698;DHT22;11516;51.612;7.510;2023-03-01T00:27:39;0.00;99.90
22698;DHT22;11516;51.612;7.510;2023-03-01T00:30:05;0.10;99.90
22698;DHT22;11516;51.612;7.510;2023-03-01T00:32:31;0.00;99.90
22698;DHT22;11516;51.612;7.510;2023-03-01T00:34:56;-0.10;99.90
22698;DHT22;11516;51.612;7.510;2023-03-01T00:37:22;-0.20;99.90
22698;DHT22;11516;51.612;7.510;2023-03-01T00:39:48;-0.20;99.90
22698;DHT22;11516;51.612;7.510;2023-03-01T00:42:14;-0.20;99.90
22698;DHT22;11516;51.612;7.510;2023-03-01T00:44:40;-0.10;99.90
22698;DHT22;11516;51.612;7.510;2023-03-01T00:47:05;-0.20;99.90
22698;DHT22;11516;51.612;7.510;2023-03-01T00:49:31;-0.10;99.90
22698;DHT22;11516;51.612;7.510;2023-03-01T00:51:56;-0.20;99.90
22698;DHT22;11516;51.612;7.510;2023-03-01T00:54:22;-0.20;99.90
22698;DHT22;11516;51.612;7.510;2023-03-01T00:56:47;-0.20;99.90
22698;DHT22;11516;51.612;7.510;2023-03-01T00:59:13;-0.20;99.90
22698;DHT22;11516;51.612;7.510;2023-03-01T01:01:38;-0.20;99.90
22698;DHT22;11516;51.612;7.510;2023-03-01T01:04:10;-0.20;99.90
22698;DHT22;11516;51.612;7.510;2023-03-01T01:06:44;-0.30;99.90
22698;DHT22;11516;51.612;7.510;2023-03-01T01:09:12;-0.30;99.90
22698;DHT22;11516;51.612;7.510;2023-03-01T01:11:46;-0.40;99.90
22698;DHT22;11516;51.612;7.510;2023-03-01T01:14:13;-0.30;99.90
22698;DHT22;11516;51.612;7.510;2023-03-01T01:16:39;-0.40;99.90
22698;DHT22;11516;51.612;7.510;2023-03-01T01:19:05;-0.40;99.90
22698;DHT22;11516;51.612;7.510;2023-03-01T01:21:31;-0.40;99.90
22698;DHT22;11516;51.612;7.510;2023-03-01T01:23:57;-0.40;99.90
22698;DHT22;11516;51.612;7.510;2023-03-01T01:26:28;-0.40;99.90
22698;DHT22;11516;51.612;7.510;2023-03-01T01:28:54;-0.40;99.90
22698;DHT22;11516;51.612;7.510;2023-03-01T01:31:20;-0.30;99.90
22698;DHT22;11516;51.612;7.510;2023-03-01T01:33:49;-0.30;99.90
22698;DHT22;11516;51.612;7.510;2023-03-01T01:36:14;-0.40;99.90
22698;DHT22;11516;51.612;7.510;2023-03-01T01:38:40;-0.40;99.90
22698;DHT22;11516;51.612;7.510;2023-03-01T01:41:08;-0.40;99.90
22698;DHT22;11516;51.612;7.510;2023-03-01T01:43:39;-0.30;99.90
22698;DHT22;11516;51.612;7.510;2023-03-01T01:49:06;-0.40;99.90
22698;DHT22;11516;51.612;7.510;2023-03-01T01:51:40;-0.40;99.90
22698;DHT22;11516;51.612;7.510;2023-03-01T01:54:16;-0.30;99.90
22698;DHT22;11516;51.612;7.510;2023-03-01T01:56:48;-0.40;99.90
22698;DHT22;11516;51.612;7.510;2023-03-01T01:59:15;-0.30;99.90
22698;DHT22;11516;51.612;7.510;2023-03-01T02:01:40;-0.50;99.90
22698;DHT22;11516;51.612;7.510;2023-03-01T02:04:06;-0.50;99.90
22698;DHT22;11516;51.612;7.510;2023-03-01T02:06:38;-0.50;99.90
22698;DHT22;11516;51.612;7.510;2023-03-01T02:09:07;-0.50;99.90
22698;DHT22;11516;51.612;7.510;2023-03-01T02:11:36;-0.60;99.90
22698;DHT22;11516;51.612;7.510;2023-03-01T02:14:03;-0.50;99.90
22698;DHT22;11516;51.612;7.510;2023-03-01T02:16:29;-0.60;99.90
22698;DHT22;11516;51.612;7.510;2023-03-01T02:18:56;-0.70;99.90
22698;DHT22;11516;51.612;7.510;2023-03-01T02:27:20;-0.80;99.90
22698;DHT22;11516;51.612;7.510;2023-03-01T02:29:50;-0.80;99.90
22698;DHT22;11516;51.612;7.510;2023-03-01T02:32:16;-0.90;99.90
22698;DHT22;11516;51.612;7.510;2023-03-01T02:34:47;-0.90;99.90
22698;DHT22;11516;51.612;7.510;2023-03-01T02:37:14;-0.90;99.90
22698;DHT22;11516;51.612;7.510;2023-03-01T02:39:47;-0.80;99.90
22698;DHT22;11516;51.612;7.510;2023-03-01T02:42:17;-0.90;99.90
22698;DHT22;11516;51.612;7.510;2023-03-01T02:44:43;-0.80;99.90
22698;DHT22;11516;51.612;7.510;2023-03-01T02:47:09;-0.90;99.90
22698;DHT22;11516;51.612;7.510;2023-03-01T02:49:36;-0.80;99.90
22698;DHT22;11516;51.612;7.510;2023-03-01T02:54:44;-0.90;99.90
22698;DHT22;11516;51.612;7.510;2023-03-01T02:57:12;-0.90;99.90
22698;DHT22;11516;51.612;7.510;2023-03-01T02:59:38;-0.90;99.90
22698;DHT22;11516;51.612;7.510;2023-03-01T03:02:07;-0.90;99.90
22698;DHT22;11516;51.612;7.510;2023-03-01T03:04:32;-0.90;99.90
22698;DHT22;11516;51.612;7.510;2023-03-01T03:06:58;-0.90;99.90
22698;DHT22;11516;51.612;7.510;2023-03-01T03:09:24;-0.90;99.90
22698;DHT22;11516;51.612;7.510;2023-03-01T03:11:49;-0.90;99.90
22698;DHT22;11516;51.612;7.510;2023-03-01T03:14:16;-0.90;99.90
22698;DHT22;11516;51.612;7.510;2023-03-01T03:16:44;-1.00;99.90
22698;DHT22;11516;51.612;7.510;2023-03-01T03:19:10;-1.00;99.90
22698;DHT22;11516;51.612;7.510;2023-03-01T03:21:36;-1.00;99.90
22698;DHT22;11516;51.612;7.510;2023-03-01T03:24:02;-1.00;99.90
22698;DHT22;11516;51.612;7.510;2023-03-01T03:26:28;-1.00;99.90
22698;DHT22;11516;51.612;7.510;2023-03-01T03:28:54;-1.10;99.90
22698;DHT22;11516;51.612;7.510;2023-03-01T03:31:20;-1.10;99.90
22698;DHT22;11516;51.612;7.510;2023-03-01T03:33:45;-1.10;99.90
22698;DHT22;11516;51.612;7.510;2023-03-01T03:36:19;-1.10;99.90
22698;DHT22;11516;51.612;7.510;2023-03-01T03:38:45;-1.10;99.90
22698;DHT22;11516;51.612;7.510;2023-03-01T03:41:11;-1.10;99.90
22698;DHT22;11516;51.612;7.510;2023-03-01T03:43:39;-1.20;99.90
22698;DHT22;11516;51.612;7.510;2023-03-01T03:46:05;-1.20;99.90
22698;DHT22;11516;51.612;7.510;2023-03-01T03:48:34;-1.20;99.90
22698;DHT22;11516;51.612;7.510;2023-03-01T03:51:00;-1.10;99.90
22698;DHT22;11516;51.612;7.510;2023-03-01T03:53:27;-1.20;99.90
22698;DHT22;11516;51.612;7.510;2023-03-01T03:55:53;-1.30;99.90
22698;DHT22;11516;51.612;7.510;2023-03-01T03:58:20;-1.40;99.90
22698;DHT22;11516;51.612;7.510;2023-03-01T04:00:48;-1.40;99.90
22698;DHT22;11516;51.612;7.510;2023-03-01T04:03:15;-1.40;99.90
22698;DHT22;11516;51.612;7.510;2023-03-01T04:05:41;-1.30;99.90
22698;DHT22;11516;51.612;7.510;2023-03-01T04:08:07;-1.50;99.90
22698;DHT22;11516;51.612;7.510;2023-03-01T04:10:35;-1.50;99.90
22698;DHT22;11516;51.612;7.510;2023-03-01T04:13:03;-1.50;99.90
22698;DHT22;11516;51.612;7.510;2023-03-01T04:15:28;-1.60;99.90
22698;DHT22;11516;51.612;7.510;2023-03-01T04:17:55;-1.60;99.90
22698;DHT22;11516;51.612;7.510;2023-03-01T04:20:22;-1.70;99.90
22698;DHT22;11516;51.612;7.510;2023-03-01T04:22:52;-1.70;99.90
22698;DHT22;11516;51.612;7.510;2023-03-01T04:25:22;-1.70;99.90
22698;DHT22;11516;51.612;7.510;2023-03-01T04:27:48;-1.80;99.90
22698;DHT22;11516;51.612;7.510;2023-03-01T04:30:14;-1.90;99.90
22698;DHT22;11516;51.612;7.510;2023-03-01T04:32:39;-1.90;99.90
22698;DHT22;11516;51.612;7.510;2023-03-01T04:35:05;-1.80;99.90
22698;DHT22;11516;51.612;7.510;2023-03-01T04:37:30;-1.90;99.90
22698;DHT22;11516;51.612;7.510;2023-03-01T04:39:56;-1.90;99.90
22698;DHT22;11516;51.612;7.510;2023-03-01T04:42:21;-1.90;99.90
22698;DHT22;11516;51.612;7.510;2023-03-01T04:44:47;-1.90;99.90
22698;DHT22;11516;51.612;7.510;2023-03-01T04:47:13;-1.90;99.90
22698;DHT22;11516;51.612;7.510;2023-03-01T04:49:38;-2.00;99.90
22698;DHT22;11516;51.612;7.510;2023-03-01T04:52:04;-2.00;99.90
22698;DHT22;11516;51.612;7.510;2023-03-01T04:54:34;-2.00;99.90
22698;DHT22;11516;51.612;7.510;2023-03-01T04:57:01;-1.90;99.90
22698;DHT22;11516;51.612;7.510;2023-03-01T04:59:27;-2.10;99.90
22698;DHT22;11516;51.612;7.510;2023-03-01T05:01:54;-2.10;99.90
22698;DHT22;11516;51.612;7.510;2023-03-01T05:04:23;-2.00;99.90
22698;DHT22;11516;51.612;7.510;2023-03-01T05:06:49;-2.00;99.90
22698;DHT22;11516;51.612;7.510;2023-03-01T05:09:15;-2.00;99.90
22698;DHT22;11516;51.612;7.510;2023-03-01T05:11:41;-2.00;99.90
22698;DHT22;11516;51.612;7.510;2023-03-01T05:14:07;-2.10;99.90
22698;DHT22;11516;51.612;7.510;2023-03-01T05:16:34;-2.10;99.90
22698;DHT22;11516;51.612;7.510;2023-03-01T05:19:00;-2.10;99.90
22698;DHT22;11516;51.612;7.510;2023-03-01T05:21:26;-2.00;99.90
22698;DHT22;11516;51.612;7.510;2023-03-01T05:23:51;-2.10;99.90
22698;DHT22;11516;51.612;7.510;2023-03-01T05:26:19;-2.10;99.90
22698;DHT22;11516;51.612;7.510;2023-03-01T05:28:47;-2.20;99.90
22698;DHT22;11516;51.612;7.510;2023-03-01T05:31:12;-2.20;99.90
22698;DHT22;11516;51.612;7.510;2023-03-01T05:33:40;-2.20;99.90
22698;DHT22;11516;51.612;7.510;2023-03-01T05:36:07;-2.10;99.90
22698;DHT22;11516;51.612;7.510;2023-03-01T05:38:33;-2.20;99.90
22698;DHT22;11516;51.612;7.510;2023-03-01T05:40:59;-2.20;99.90
22698;DHT22;11516;51.612;7.510;2023-03-01T05:43:25;-2.10;99.90
22698;DHT22;11516;51.612;7.510;2023-03-01T05:45:50;-2.00;99.90
22698;DHT22;11516;51.612;7.510;2023-03-01T05:48:16;-2.10;99.90
22698;DHT22;11516;51.612;7.510;2023-03-01T05:50:43;-2.10;99.90
22698;DHT22;11516;51.612;7.510;2023-03-01T05:53:12;-2.10;99.90
22698;DHT22;11516;51.612;7.510;2023-03-01T05:55:39;-2.00;99.90
22698;DHT22;11516;51.612;7.510;2023-03-01T05:58:10;-2.10;99.90
22698;DHT22;11516;51.612;7.510;2023-03-01T06:00:36;-2.10;99.90
22698;DHT22;11516;51.612;7.510;2023-03-01T06:03:02;-2.10;99.90
22698;DHT22;11516;51.612;7.510;2023-03-01T06:05:28;-2.10;99.90
22698;DHT22;11516;51.612;7.510;2023-03-01T06:07:59;-2.00;99.90
22698;DHT22;11516;51.612;7.510;2023-03-01T06:10:25;-2.00;99.90
22698;DHT22;11516;51.612;7.510;2023-03-01T06:12:50;-2.00;99.90
22698;DHT22;11516;51.612;7.510;2023-03-01T06:15:16;-2.00;99.90
22698;DHT22;11516;51.612;7.510;2023-03-01T06:17:44;-2.00;99.90
22698;DHT22;11516;51.612;7.510;2023-03-01T06:20:19;-1.90;99.90
22698;DHT22;11516;51.612;7.510;2023-03-01T06:22:45;-1.90;99.90
22698;DHT22;11516;51.612;7.510;2023-03-01T06:25:13;-1.90;99.90
22698;DHT22;11516;51.612;7.510;2023-03-01T06:27:40;-2.00;99.90
22698;DHT22;11516;51.612;7.510;2023-03-01T06:30:06;-2.00;99.90
22698;DHT22;11516;51.612;7.510;2023-03-01T06:32:33;-2.00;99.90
22698;DHT22;11516;51.612;7.510;2023-03-01T06:34:59;-2.00;99.90
22698;DHT22;11516;51.612;7.510;2023-03-01T06:37:25;-2.10;99.90
22698;DHT22;11516;51.612;7.510;2023-03-01T06:39:51;-2.00;99.90
22698;DHT22;11516;51.612;7.510;2023-03-01T06:42:16;-2.00;99.90
22698;DHT22;11516;51.612;7.510;2023-03-01T06:44:42;-2.00;99.90
22698;DHT22;11516;51.612;7.510;2023-03-01T06:47:07;-2.00;99.90
22698;DHT22;11516;51.612;7.510;2023-03-01T06:49:33;-2.00;99.90
22698;DHT22;11516;51.612;7.510;2023-03-01T06:51:58;-2.00;99.90
22698;DHT22;11516;51.612;7.510;2023-03-01T06:54:24;-2.00;99.90
22698;DHT22;11516;51.612;7.510;2023-03-01T06:56:50;-1.90;99.90
22698;DHT22;11516;51.612;7.510;2023-03-01T06:59:17;-1.90;99.90
22698;DHT22;11516;51.612;7.510;2023-03-01T07:01:42;-1.90;99.90
22698;DHT22;11516;51.612;7.510;2023-03-01T07:04:09;-1.80;99.90
22698;DHT22;11516;51.612;7.510;2023-03-01T07:06:34;-1.60;99.90
22698;DHT22;11516;51.612;7.510;2023-03-01T07:09:00;-1.70;99.90
22698;DHT22;11516;51.612;7.510;2023-03-01T07:11:26;-1.70;99.90
22698;DHT22;11516;51.612;7.510;2023-03-01T07:13:51;-1.60;99.90
22698;DHT22;11516;51.612;7.510;2023-03-01T07:16:17;-1.60;99.90
22698;DHT22;11516;51.612;7.510;2023-03-01T07:18:42;-1.50;99.90
22698;DHT22;11516;51.612;7.510;2023-03-01T07:21:09;-1.40;99.90
22698;DHT22;11516;51.612;7.510;2023-03-01T07:23:36;-1.40;99.90
22698;DHT22;11516;51.612;7.510;2023-03-01T07:26:01;-1.40;99.90
22698;DHT22;11516;51.612;7.510;2023-03-01T07:28:28;-1.40;99.90
22698;DHT22;11516;51.612;7.510;2023-03-01T07:30:54;-1.40;99.90
22698;DHT22;11516;51.612;7.510;2023-03-01T07:33:20;-1.20;99.90
22698;DHT22;11516;51.612;7.510;2023-03-01T07:35:46;-1.20;99.90
22698;DHT22;11516;51.612;7.510;2023-03-01T07:38:11;-1.10;99.90
22698;DHT22;11516;51.612;7.510;2023-03-01T07:40:37;-1.10;99.90
22698;DHT22;11516;51.612;7.510;2023-03-01T07:43:03;-1.00;99.90
22698;DHT22;11516;51.612;7.510;2023-03-01T07:45:28;-1.00;99.90
22698;DHT22;11516;51.612;7.510;2023-03-01T07:47:55;-0.80;99.90
22698;DHT22;11516;51.612;7.510;2023-03-01T07:50:21;-0.90;99.90
22698;DHT22;11516;51.612;7.510;2023-03-01T07:52:48;-0.90;99.90
22698;DHT22;11516;51.612;7.510;2023-03-01T07:55:14;-0.90;99.90
22698;DHT22;11516;51.612;7.510;2023-03-01T07:57:40;-0.80;99.90
22698;DHT22;11516;51.612;7.510;2023-03-01T08:00:07;-0.70;99.90
22698;DHT22;11516;51.612;7.510;2023-03-01T08:02:32;-0.60;99.90
22698;DHT22;11516;51.612;7.510;2023-03-01T08:04:58;-0.60;99.90
22698;DHT22;11516;51.612;7.510;2023-03-01T08:07:24;-0.60;99.90
22698;DHT22;11516;51.612;7.510;2023-03-01T08:09:49;-0.50;99.90
22698;DHT22;11516;51.612;7.510;2023-03-01T08:12:15;-0.40;99.90
22698;DHT22;11516;51.612;7.510;2023-03-01T08:14:42;-0.40;99.90
22698;DHT22;11516;51.612;7.510;2023-03-01T08:17:07;-0.30;99.90
22698;DHT22;11516;51.612;7.510;2023-03-01T08:19:33;-0.20;99.90
22698;DHT22;11516;51.612;7.510;2023-03-01T08:22:01;-0.10;99.90
22698;DHT22;11516;51.612;7.510;2023-03-01T08:24:26;0.00;99.90
22698;DHT22;11516;51.612;7.510;2023-03-01T08:26:52;0.10;99.90
22698;DHT22;11516;51.612;7.510;2023-03-01T08:29:18;0.10;99.90
22698;DHT22;11516;51.612;7.510;2023-03-01T08:31:43;0.20;99.90
22698;DHT22;11516;51.612;7.510;2023-03-01T08:34:11;0.30;99.90
22698;DHT22;11516;51.612;7.510;2023-03-01T08:36:39;0.40;99.90
22698;DHT22;11516;51.612;7.510;2023-03-01T08:39:06;0.50;99.90
22698;DHT22;11516;51.612;7.510;2023-03-01T08:41:32;0.50;99.90
22698;DHT22;11516;51.612;7.510;2023-03-01T08:43:58;0.50;99.90
22698;DHT22;11516;51.612;7.510;2023-03-01T08:46:25;0.60;99.90
22698;DHT22;11516;51.612;7.510;2023-03-01T08:48:51;0.80;99.90
22698;DHT22;11516;51.612;7.510;2023-03-01T08:51:18;0.90;99.90
22698;DHT22;11516;51.612;7.510;2023-03-01T08:53:44;0.90;99.90
22698;DHT22;11516;51.612;7.510;2023-03-01T08:56:10;1.00;99.90
22698;DHT22;11516;51.612;7.510;2023-03-01T08:58:36;1.00;99.90
22698;DHT22;11516;51.612;7.510;2023-03-01T09:01:10;1.10;99.90
22698;DHT22;11516;51.612;7.510;2023-03-01T09:03:37;1.10;99.90
22698;DHT22;11516;51.612;7.510;2023-03-01T09:06:04;1.20;99.90
22698;DHT22;11516;51.612;7.510;2023-03-01T09:08:30;1.40;99.90
22698;DHT22;11516;51.612;7.510;2023-03-01T09:10:56;1.40;99.90
22698;DHT22;11516;51.612;7.510;2023-03-01T09:13:21;1.50;99.90
22698;DHT22;11516;51.612;7.510;2023-03-01T09:15:50;1.60;99.90
22698;DHT22;11516;51.612;7.510;2023-03-01T09:18:15;1.70;99.90
22698;DHT22;11516;51.612;7.510;2023-03-01T09:20:41;1.70;99.90
22698;DHT22;11516;51.612;7.510;2023-03-01T09:23:07;1.90;99.90
22698;DHT22;11516;51.612;7.510;2023-03-01T09:25:34;1.90;99.90
22698;DHT22;11516;51.612;7.510;2023-03-01T09:28:00;2.00;99.90
22698;DHT22;11516;51.612;7.510;2023-03-01T09:30:26;2.10;99.90
22698;DHT22;11516;51.612;7.510;2023-03-01T09:32:51;2.10;99.90
22698;DHT22;11516;51.612;7.510;2023-03-01T09:35:18;2.20;99.90
22698;DHT22;11516;51.612;7.510;2023-03-01T09:37:45;2.40;99.90
22698;DHT22;11516;51.612;7.510;2023-03-01T09:40:17;2.50;99.90
22698;DHT22;11516;51.612;7.510;2023-03-01T09:42:54;2.50;99.90
22698;DHT22;11516;51.612;7.510;2023-03-01T09:45:29;2.60;99.90
22698;DHT22;11516;51.612;7.510;2023-03-01T09:47:58;2.70;99.90
22698;DHT22;11516;51.612;7.510;2023-03-01T09:50:26;2.90;99.90
22698;DHT22;11516;51.612;7.510;2023-03-01T09:53:03;2.90;99.90
22698;DHT22;11516;51.612;7.510;2023-03-01T09:55:43;3.00;99.90
22698;DHT22;11516;51.612;7.510;2023-03-01T10:01:17;3.20;99.90
22698;DHT22;11516;51.612;7.510;2023-03-01T10:03:58;3.30;99.90
22698;DHT22;11516;51.612;7.510;2023-03-01T10:06:26;3.60;99.90
22698;DHT22;11516;51.612;7.510;2023-03-01T10:09:07;3.70;99.90
22698;DHT22;11516;51.612;7.510;2023-03-01T10:11:43;3.80;99.90
22698;DHT22;11516;51.612;7.510;2023-03-01T10:17:10;3.90;99.90
22698;DHT22;11516;51.612;7.510;2023-03-01T10:19:42;3.90;99.90
22698;DHT22;11516;51.612;7.510;2023-03-01T10:22:20;4.00;99.90
22698;DHT22;11516;51.612;7.510;2023-03-01T10:24:50;4.00;99.90
22698;DHT22;11516;51.612;7.510;2023-03-01T10:27:23;4.10;99.90
22698;DHT22;11516;51.612;7.510;2023-03-01T10:30:44;4.20;99.90
22698;DHT22;11516;51.612;7.510;2023-03-01T10:32:51;4.30;99.90
22698;DHT22;11516;51.612;7.510;2023-03-01T10:35:34;4.50;99.90
22698;DHT22;11516;51.612;7.510;2023-03-01T10:38:09;4.50;99.90
22698;DHT22;11516;51.612;7.510;2023-03-01T10:40:36;4.50;99.90
22698;DHT22;11516;51.612;7.510;2023-03-01T10:43:14;4.50;99.90
22698;DHT22;11516;51.612;7.510;2023-03-01T10:45:40;4.60;99.90
22698;DHT22;11516;51.612;7.510;2023-03-01T10:50:38;4.60;98.20
22698;DHT22;11516;51.612;7.510;2023-03-01T10:53:05;4.60;98.10
22698;DHT22;11516;51.612;7.510;2023-03-01T10:55:41;4.60;98.40
22698;DHT22;11516;51.612;7.510;2023-03-01T10:58:21;4.70;98.10
22698;DHT22;11516;51.612;7.510;2023-03-01T11:03:38;4.90;97.30
22698;DHT22;11516;51.612;7.510;2023-03-01T11:06:19;4.90;96.60
22698;DHT22;11516;51.612;7.510;2023-03-01T11:08:48;4.80;96.60
22698;DHT22;11516;51.612;7.510;2023-03-01T11:13:56;5.00;96.40
22698;DHT22;11516;51.612;7.510;2023-03-01T11:19:17;5.10;96.20
22698;DHT22;11516;51.612;7.510;2023-03-01T11:22:01;5.30;95.60
22698;DHT22;11516;51.612;7.510;2023-03-01T11:27:32;5.50;95.20
22698;DHT22;11516;51.612;7.510;2023-03-01T11:33:20;5.50;93.80
22698;DHT22;11516;51.612;7.510;2023-03-01T11:36:00;5.40;93.90
22698;DHT22;11516;51.612;7.510;2023-03-01T11:38:29;5.50;94.00
22698;DHT22;11516;51.612;7.510;2023-03-01T11:41:05;6.40;93.40
22698;DHT22;11516;51.612;7.510;2023-03-01T11:43:51;7.40;90.80
22698;DHT22;11516;51.612;7.510;2023-03-01T11:48:47;8.40;86.30
22698;DHT22;11516;51.612;7.510;2023-03-01T11:54:05;9.00;79.20
22698;DHT22;11516;51.612;7.510;2023-03-01T11:56:35;8.80;79.00
22698;DHT22;11516;51.612;7.510;2023-03-01T11:59:22;9.10;77.60
22698;DHT22;11516;51.612;7.510;2023-03-01T12:02:11;9.30;76.40
22698;DHT22;11516;51.612;7.510;2023-03-01T12:05:05;9.40;76.30
22698;DHT22;11516;51.612;7.510;2023-03-01T12:07:57;9.70;76.10
22698;DHT22;11516;51.612;7.510;2023-03-01T12:10:29;9.60;74.70
22698;DHT22;11516;51.612;7.510;2023-03-01T12:13:41;9.40;74.70
22698;DHT22;11516;51.612;7.510;2023-03-01T12:21:42;9.20;74.60
22698;DHT22;11516;51.612;7.510;2023-03-01T12:24:20;9.20;75.50
22698;DHT22;11516;51.612;7.510;2023-03-01T12:27:01;9.30;76.40
22698;DHT22;11516;51.612;7.510;2023-03-01T12:29:34;9.60;73.20
22698;DHT22;11516;51.612;7.510;2023-03-01T12:51:20;10.10;69.20
22698;DHT22;11516;51.612;7.510;2023-03-01T12:53:49;9.90;69.80
22698;DHT22;11516;51.612;7.510;2023-03-01T12:56:24;9.90;69.80
22698;DHT22;11516;51.612;7.510;2023-03-01T12:59:01;9.70;70.30
22698;DHT22;11516;51.612;7.510;2023-03-01T13:01:56;9.90;70.50
22698;DHT22;11516;51.612;7.510;2023-03-01T13:08:01;9.80;70.30
22698;DHT22;11516;51.612;7.510;2023-03-01T13:13:02;10.10;70.40
22698;DHT22;11516;51.612;7.510;2023-03-01T13:15:33;10.10;70.10
22698;DHT22;11516;51.612;7.510;2023-03-01T13:18:00;10.10;70.10
22698;DHT22;11516;51.612;7.510;2023-03-01T13:20:47;10.40;70.00
22698;DHT22;11516;51.612;7.510;2023-03-01T13:26:14;10.30;68.80
22698;DHT22;11516;51.612;7.510;2023-03-01T13:28:52;10.30;68.50
22698;DHT22;11516;51.612;7.510;2023-03-01T13:33:48;10.10;68.70
22698;DHT22;11516;51.612;7.510;2023-03-01T13:39:02;10.30;69.20
22698;DHT22;11516;51.612;7.510;2023-03-01T13:49:56;10.30;69.10
22698;DHT22;11516;51.612;7.510;2023-03-01T13:52:34;10.50;68.30
22698;DHT22;11516;51.612;7.510;2023-03-01T13:55:03;10.30;68.10
22698;DHT22;11516;51.612;7.510;2023-03-01T13:57:38;10.30;69.60
22698;DHT22;11516;51.612;7.510;2023-03-01T14:00:05;10.30;69.30
22698;DHT22;11516;51.612;7.510;2023-03-01T14:02:31;10.50;69.50
22698;DHT22;11516;51.612;7.510;2023-03-01T14:04:58;10.80;67.40
22698;DHT22;11516;51.612;7.510;2023-03-01T14:07:25;11.20;68.30
22698;DHT22;11516;51.612;7.510;2023-03-01T14:09:58;11.50;66.70
22698;DHT22;11516;51.612;7.510;2023-03-01T14:13:08;11.00;67.40
22698;DHT22;11516;51.612;7.510;2023-03-01T14:15:42;10.90;67.70
22698;DHT22;11516;51.612;7.510;2023-03-01T14:18:22;11.00;67.30
22698;DHT22;11516;51.612;7.510;2023-03-01T14:20:52;10.70;67.30
22698;DHT22;11516;51.612;7.510;2023-03-01T14:23:23;10.70;67.30
22698;DHT22;11516;51.612;7.510;2023-03-01T14:25:49;10.50;67.10
22698;DHT22;11516;51.612;7.510;2023-03-01T14:30:45;10.70;68.50
22698;DHT22;11516;51.612;7.510;2023-03-01T14:33:53;11.30;66.50
22698;DHT22;11516;51.612;7.510;2023-03-01T14:36:13;11.30;65.70
22698;DHT22;11516;51.612;7.510;2023-03-01T14:38:40;11.00;67.80
22698;DHT22;11516;51.612;7.510;2023-03-01T14:41:17;10.90;66.20
22698;DHT22;11516;51.612;7.510;2023-03-01T14:43:51;11.10;66.60
22698;DHT22;11516;51.612;7.510;2023-03-01T14:49:17;11.00;67.20
22698;DHT22;11516;51.612;7.510;2023-03-01T14:51:53;11.00;66.60
22698;DHT22;11516;51.612;7.510;2023-03-01T14:57:20;10.90;65.40
22698;DHT22;11516;51.612;7.510;2023-03-01T14:59:57;10.60;66.30
22698;DHT22;11516;51.612;7.510;2023-03-01T15:02:25;10.70;64.90
22698;DHT22;11516;51.612;7.510;2023-03-01T15:04:54;10.40;65.80
22698;DHT22;11516;51.612;7.510;2023-03-01T15:07:23;10.40;66.50
22698;DHT22;11516;51.612;7.510;2023-03-01T15:09:51;10.50;63.40
22698;DHT22;11516;51.612;7.510;2023-03-01T15:12:38;10.60;63.40
22698;DHT22;11516;51.612;7.510;2023-03-01T15:15:32;10.70;63.10
22698;DHT22;11516;51.612;7.510;2023-03-01T15:18:19;10.60;62.30
22698;DHT22;11516;51.612;7.510;2023-03-01T15:20:46;10.40;62.70
22698;DHT22;11516;51.612;7.510;2023-03-01T15:23:29;10.50;61.40
22698;DHT22;11516;51.612;7.510;2023-03-01T15:25:56;10.30;61.50
22698;DHT22;11516;51.612;7.510;2023-03-01T15:28:29;9.90;62.60
22698;DHT22;11516;51.612;7.510;2023-03-01T15:31:07;10.20;63.30
22698;DHT22;11516;51.612;7.510;2023-03-01T15:33:38;10.10;62.10
22698;DHT22;11516;51.612;7.510;2023-03-01T15:36:30;10.10;61.90
22698;DHT22;11516;51.612;7.510;2023-03-01T15:38:57;10.10;62.30
22698;DHT22;11516;51.612;7.510;2023-03-01T15:41:27;10.10;62.90
22698;DHT22;11516;51.612;7.510;2023-03-01T15:43:53;10.20;62.50
22698;DHT22;11516;51.612;7.510;2023-03-01T15:46:30;10.40;62.40
22698;DHT22;11516;51.612;7.510;2023-03-01T15:48:59;10.10;63.40
22698;DHT22;11516;51.612;7.510;2023-03-01T15:51:34;9.90;63.30
22698;DHT22;11516;51.612;7.510;2023-03-01T15:54:04;9.60;64.00
22698;DHT22;11516;51.612;7.510;2023-03-01T15:56:30;9.80;64.20
22698;DHT22;11516;51.612;7.510;2023-03-01T15:59:02;9.90;63.60
22698;DHT22;11516;51.612;7.510;2023-03-01T16:01:28;9.70;63.60
22698;DHT22;11516;51.612;7.510;2023-03-01T16:03:54;9.70;63.80
22698;DHT22;11516;51.612;7.510;2023-03-01T16:06:20;9.40;64.90
22698;DHT22;11516;51.612;7.510;2023-03-01T16:08:46;9.60;65.10
22698;DHT22;11516;51.612;7.510;2023-03-01T16:11:16;9.50;64.60
22698;DHT22;11516;51.612;7.510;2023-03-01T16:13:42;9.40;66.10
22698;DHT22;11516;51.612;7.510;2023-03-01T16:16:10;9.60;65.40
22698;DHT22;11516;51.612;7.510;2023-03-01T16:18:38;9.40;64.80
22698;DHT22;11516;51.612;7.510;2023-03-01T16:21:04;8.80;65.90
22698;DHT22;11516;51.612;7.510;2023-03-01T16:23:30;8.30;67.40
22698;DHT22;11516;51.612;7.510;2023-03-01T16:25:59;7.90;68.90
22698;DHT22;11516;51.612;7.510;2023-03-01T16:28:25;7.60;70.30
22698;DHT22;11516;51.612;7.510;2023-03-01T16:30:51;7.60;71.30
22698;DHT22;11516;51.612;7.510;2023-03-01T16:33:17;7.40;72.30
22698;DHT22;11516;51.612;7.510;2023-03-01T16:35:42;7.30;73.20
22698;DHT22;11516;51.612;7.510;2023-03-01T16:38:09;7.20;74.00
22698;DHT22;11516;51.612;7.510;2023-03-01T16:40:35;7.00;74.70
22698;DHT22;11516;51.612;7.510;2023-03-01T16:43:00;6.90;75.40
22698;DHT22;11516;51.612;7.510;2023-03-01T16:45:34;6.80;76.00
22698;DHT22;11516;51.612;7.510;2023-03-01T16:48:05;6.70;76.00
22698;DHT22;11516;51.612;7.510;2023-03-01T16:50:31;6.60;76.90
22698;DHT22;11516;51.612;7.510;2023-03-01T16:52:57;6.60;76.10
22698;DHT22;11516;51.612;7.510;2023-03-01T16:55:22;6.40;76.90
22698;DHT22;11516;51.612;7.510;2023-03-01T16:57:48;6.30;76.80
22698;DHT22;11516;51.612;7.510;2023-03-01T17:00:18;6.30;77.30
22698;DHT22;11516;51.612;7.510;2023-03-01T17:02:44;6.30;77.00
22698;DHT22;11516;51.612;7.510;2023-03-01T17:05:14;6.10;77.60
22698;DHT22;11516;51.612;7.510;2023-03-01T17:07:57;6.00;77.90
22698;DHT22;11516;51.612;7.510;2023-03-01T17:10:25;6.00;77.90
22698;DHT22;11516;51.612;7.510;2023-03-01T17:12:51;5.90;78.30
22698;DHT22;11516;51.612;7.510;2023-03-01T17:15:16;5.80;78.50
22698;DHT22;11516;51.612;7.510;2023-03-01T17:17:42;5.70;79.10
22698;DHT22;11516;51.612;7.510;2023-03-01T17:20:08;5.60;79.30
22698;DHT22;11516;51.612;7.510;2023-03-01T17:22:34;5.60;79.20
22698;DHT22;11516;51.612;7.510;2023-03-01T17:25:00;5.50;79.50